Bayberry, New York
Current Conditions -  °F | °C
As of 10:11 AM on Thursday 30 Oct 2014 (Local Time) from KSYR Reporting Station
Overcast Overcast  
Wind Chill:   Ceiling: 3900
Heat Index:   Visibility: 10mi
Dew Point:   Wind: 10mph
Humidity: 89%   Direction: 270°W
Pressure: 30.03"   Gusts: NA
Location:  43.1489°N, 76.2142°W
Report Text: KSYR 301411Z 27009KT 10SM SCT008 SCT029 OVC039 08/06 A3003 RMK AO2 RAE03 SCT029 V BKN P0000 T00780061
Loading
Personal Weather Stations






























Interactive Weather Map
Tropical Storm Tracking
New forecast layout! Learn more

10-Day Weather Forecast

Advertisements
Track Severe Weather on mobile